Niagara-on-the-Lake, Ontario

2:02 PM EST on February 08, 2016 (GMT -0500)
APRSWXNET | | Change Station
CLOSE
Current Station
Personal Weather Station
Location: St. Catharines, ON
Elevation: 295 ft
Nearby Weather Stations

Elev 295 ft 43.22 °N, 79.15 °W | Updated 24 minutes ago

Overcast
Overcast
43 °F
Feels Like 39 °F
N
7
Wind Variable Wind from ENE
Gusts 10.0 mph

Today is forecast to be nearly the same temperature as yesterday.

Today
High -- | Low -- °F
--% Chance of Precip.
Yesterday
High -- | Low -- °F
Precip. -- in
Pressure 29.60 in
Visibility 15.0 miles
Clouds Overcast 5400 ft
Windchill 39 °F
Dew Point 35 °F
Humidity 72%
Rainfall in
Snow Depth Not available.
7:24 AM 5:37 PM
New Moon, 0% visible
METAR CYSN 081800Z 09007KT 15SM OVC054 08/M01 A2959 RMK SC8 SLP024
Pressure 29.60 in
Visibility 15.0 miles
Clouds Overcast 5400 ft
Windchill 39 °F
Dew Point 35 °F
Humidity 72%
Rainfall in
Snow Depth Not available.
7:24 AM 5:37 PM
New Moon, 0% visible
METAR CYSN 081800Z 09007KT 15SM OVC054 08/M01 A2959 RMK SC8 SLP024

10-Day Weather Forecast

Almanac

Astronomy

Feb. 08, 2016 Rise Set
Actual Time
Civil Twilight
Nautical Twilight
Astronomical Twilight
Moon
Length of Visible Light
Length of Day
Tomorrow will be .
, % of the Moon is Illuminated

Today's Extremes

Country Highs Country Lows

Community

WunderPhotos

Upload Photos

1,891,485 photos uploaded!

WunderBlog® & News

Nearby

Air Quality

  Air Quality AQ Index Pollutant
Not available.

Snow Depth

Station Depth Elevation

Earthquake Activity

City Distance Mag. Time & Date
Minimum magnitude displayed is 2.5.

Coastal Water Temperatures

Place Temperature

Stations

Nearby Weather Stations

Station Location Temp. Windchill Dew Point Humidity Wind Precip. Elev Updated Type
                   

Watches & Warnings

There are currently no watches in effect.